This is the latest recevied weather packets stored in our database for station/object SP2WPY-13. If no packets are shown the sender has not sent any weather packets the latest 10 day(s).
| Time | Temp. | Humidity | Pressure | Rain* | Wind** | Luminosity | Snow |
|---|---|---|---|---|---|---|---|
| 1777225125 | 7.22° C | 33% | 1024.7 hPa | - | - | - | - |
| 1777224805 | 7.78° C | 32% | 1024.7 hPa | - | - | - | - |
| 1777224486 | 8.33° C | 31% | 1024.6 hPa | - | - | - | - |
| 1777224212 | 8.33° C | 31% | 1024.6 hPa | - | - | - | - |
| 1777223892 | 8.89° C | 29% | 1024.6 hPa | - | - | - | - |
| 1777223618 | 8.89° C | 27% | 1024.6 hPa | - | - | - | - |
| 1777223299 | 8.33° C | 27% | 1024.6 hPa | - | - | - | - |
| 1777223024 | 8.89° C | 25% | 1024.6 hPa | - | - | - | - |
| 1777222704 | 8.89° C | 26% | 1024.6 hPa | - | - | - | - |
| 1777222385 | 8.89° C | 26% | 1024.7 hPa | - | - | - | - |
| 1777222111 | 8.89° C | 26% | 1024.7 hPa | - | - | - | - |
| 1777221792 | 9.44° C | 24% | 1024.7 hPa | - | - | - | - |
| 1777221517 | 9.44° C | 26% | 1024.8 hPa | - | - | - | - |
| 1777221198 | 9.44° C | 26% | 1024.7 hPa | - | - | - | - |
| 1777220923 | 9.44° C | 27% | 1024.8 hPa | - | - | - | - |
| 1777220603 | 9.44° C | 26% | 1024.8 hPa | - | - | - | - |
| 1777220284 | 9.44° C | 26% | 1024.8 hPa | - | - | - | - |
| 1777220010 | 9.44° C | 25% | 1024.8 hPa | - | - | - | - |
| 1777219690 | 8.89° C | 30% | 1024.9 hPa | - | - | - | - |
| 1777219416 | 8.89° C | 29% | 1024.9 hPa | - | - | - | - |
| 1777219097 | 9.44° C | 30% | 1025 hPa | - | - | - | - |
| 1777218823 | 9.44° C | 28% | 1025 hPa | - | - | - | - |
| 1777218503 | 9.44° C | 28% | 1024.9 hPa | - | - | - | - |
| 1777218183 | 9.44° C | 26% | 1025 hPa | - | - | - | - |
| 1777217909 | 9.44° C | 27% | 1024.9 hPa | - | - | - | - |
* Rain since midnight (hover to see other rain measurements)
** Current wind speed in m/s (hover to see current wind gust speed)